Portada
METAR-TAF:

METAR-TAF

Aeropuertos :

Madrid-Torrejón, España

Base Aérea de Torrejón / Aeropuerto de Madrid-Torrejón

latitud: 40-29N, longitud: 003-27W, altitud: 607 m

Observación

El informe se hizo hace 26 minutos, a las 18:00 UTC
Viento 4 kt del suroeste
Temperatura 25°C
Humedad 28%
Presión 1019 hPa
Visibilidad 10 km o más
sin nubes por debajo de 1500 m y sin presencia de cumulonimbus.

METAR: LETO 231800Z 23004KT CAVOK 25/05 Q1019 NOSIG

Hora: 20:26 (18:26 UTC)

Pronóstico

El informe se hizo hace 1 hora y 26 minutos, a las 17:00 UTC
Pronóstico válido del 23 a las 18 UTC al 24 a las 18 UTC
Viento 5 kt con dirección variable
Visibilidad 10 km o más
sin nubes por debajo de 1500 m y sin presencia de cumulonimbus.
Evolucionando progresivamente
del 24 a las 10 UTC al 24 a las 11 UTC
Viento 10 kt del suroeste

TAF: LETO 231700Z 2318/2418 VRB05KT CAVOK TX30/2415Z TN13/2406Z BECMG 2410/2411 22010KT

Observaciones y pronósticos meteorológicos de más de 4000 aeropuertos (mensajes METAR y TAF).

Los puntos amarillos y rojos representan las estaciones disponibles.

Ponga el ratón en el punto deseado para ver el nombre de la estación.

Haga clic para ver las observaciones y los pronósticos meteorológicos.

Para cambiar el mapa : haga clic en los botones verdes con una cruz de color negro para hacer un zoom, en el botón verde con un guión para alejar o en las flechas verdes para mapas adyacentes.


METAR-TAF: